createdAt,value
2023-05-15T00:01:43.888Z,96076.28
2023-05-15T00:04:10.252Z,96074.34
2023-05-15T00:06:36.629Z,96067.97
2023-05-15T00:09:03.029Z,96067.19
2023-05-15T00:11:29.413Z,96065.78
2023-05-15T00:13:55.781Z,96056.16
2023-05-15T00:16:22.249Z,96055.38
2023-05-15T00:18:48.851Z,96053.66
2023-05-15T00:21:15.257Z,96068.22
2023-05-15T00:23:41.668Z,96052.84
2023-05-15T00:26:08.041Z,96054.75
2023-05-15T00:28:34.437Z,96069.31
2023-05-15T00:31:00.878Z,96070.63
2023-05-15T00:33:27.303Z,96080.81
2023-05-15T00:35:53.671Z,96079.78
2023-05-15T00:38:20.060Z,96085.44
2023-05-15T00:40:46.445Z,96071.59
2023-05-15T00:43:12.818Z,96060.72
2023-05-15T00:45:39.247Z,96044.03
2023-05-15T00:48:05.669Z,96042.50
2023-05-15T00:50:32.083Z,96054.09
2023-05-15T00:52:58.492Z,96050.00
2023-05-15T00:55:25.119Z,96054.03
2023-05-15T00:57:51.668Z,96047.09
2023-05-15T01:00:18.109Z,96052.19
2023-05-15T01:02:44.551Z,96042.63
2023-05-15T01:05:11.052Z,96029.81
2023-05-15T01:07:37.469Z,96028.88
2023-05-15T01:10:03.795Z,96033.84
2023-05-15T01:12:30.169Z,96025.72
2023-05-15T01:14:56.583Z,96028.31
2023-05-15T01:17:22.954Z,96023.06
2023-05-15T01:19:49.434Z,96022.72
2023-05-15T01:22:15.943Z,96026.63
2023-05-15T01:24:42.322Z,96024.16
2023-05-15T01:27:08.696Z,96024.88
2023-05-15T01:29:35.098Z,96033.97
2023-05-15T01:32:01.514Z,96028.22
2023-05-15T01:34:27.882Z,96031.53
2023-05-15T01:36:54.283Z,96032.22
2023-05-15T01:39:20.655Z,96025.34
2023-05-15T01:41:47.028Z,96035.53
2023-05-15T01:44:13.445Z,96029.19
2023-05-15T01:46:39.927Z,96031.25
2023-05-15T01:49:06.352Z,96024.19
2023-05-15T01:51:32.759Z,96022.00
2023-05-15T01:53:59.150Z,96023.94
2023-05-15T01:56:27.062Z,96019.25
2023-05-15T01:58:53.573Z,96019.94
2023-05-15T02:01:19.981Z,96024.13
2023-05-15T02:03:46.514Z,96017.19
2023-05-15T02:06:13.019Z,96026.03
2023-05-15T02:08:39.416Z,96023.72
2023-05-15T02:11:05.804Z,96030.41
2023-05-15T02:13:32.228Z,96023.47
2023-05-15T02:15:58.665Z,96021.34
2023-05-15T02:18:25.058Z,96016.53
2023-05-15T02:20:51.465Z,96019.31
2023-05-15T02:23:17.845Z,96024.88
2023-05-15T02:25:44.221Z,96022.81
2023-05-15T02:28:10.749Z,96018.69
2023-05-15T02:30:37.115Z,96015.97
2023-05-15T02:33:03.510Z,96015.94
2023-05-15T02:35:29.923Z,96010.78
2023-05-15T02:37:56.292Z,96011.88
2023-05-15T02:40:22.660Z,96015.13
2023-05-15T02:42:49.067Z,96021.06
2023-05-15T02:45:15.432Z,96020.28
2023-05-15T02:47:41.872Z,96023.94
2023-05-15T02:50:08.308Z,96016.09
2023-05-15T02:52:34.699Z,96028.22
2023-05-15T02:55:01.073Z,96024.50
2023-05-15T02:57:27.455Z,96025.19
2023-05-15T02:59:53.835Z,96024.63
2023-05-15T03:02:20.220Z,96024.41
2023-05-15T03:04:47.987Z,96028.41
2023-05-15T03:07:14.468Z,96029.75
2023-05-15T03:09:40.836Z,96023.84
2023-05-15T03:12:07.264Z,96027.53
2023-05-15T03:14:33.638Z,96012.78
2023-05-15T03:17:00.024Z,96010.31
2023-05-15T03:19:26.458Z,96012.00
2023-05-15T03:21:52.837Z,96010.09
2023-05-15T03:24:19.213Z,96015.03
2023-05-15T03:26:45.604Z,96008.53
2023-05-15T03:29:14.981Z,96008.59
2023-05-15T03:31:41.380Z,96010.38
2023-05-15T03:34:07.784Z,96008.16
2023-05-15T03:36:34.169Z,96010.22
2023-05-15T03:39:00.557Z,96010.22
2023-05-15T03:41:26.967Z,96012.00
2023-05-15T03:43:53.347Z,96009.00
2023-05-15T03:46:20.258Z,96005.66
2023-05-15T03:48:46.756Z,96002.16
2023-05-15T03:51:13.130Z,96001.38
2023-05-15T03:53:39.521Z,96012.78
2023-05-15T03:56:05.954Z,96024.41
2023-05-15T03:58:32.492Z,96021.94
2023-05-15T04:00:58.881Z,96026.31
2023-05-15T04:03:25.377Z,96021.16
2023-05-15T04:05:51.829Z,96021.94
2023-05-15T04:08:18.229Z,96022.94
2023-05-15T04:10:44.624Z,96018.81
2023-05-15T04:13:11.007Z,96027.66
2023-05-15T04:15:37.378Z,96023.50
2023-05-15T04:18:03.851Z,96015.94
2023-05-15T04:20:30.295Z,96026.88
2023-05-15T04:22:56.661Z,96029.75
2023-05-15T04:25:23.273Z,96027.19
2023-05-15T04:27:49.853Z,96029.41
2023-05-15T04:30:16.237Z,96034.22
2023-05-15T04:32:42.665Z,96032.56
2023-05-15T04:35:09.053Z,96031.41
2023-05-15T04:37:35.418Z,96031.97
2023-05-15T04:40:01.792Z,96033.97
2023-05-15T04:42:28.159Z,96026.06
2023-05-15T04:44:54.533Z,96024.38
2023-05-15T04:47:20.952Z,96026.59
2023-05-15T04:49:47.348Z,96030.31
2023-05-15T04:52:13.730Z,96030.94
2023-05-15T04:54:40.130Z,96033.19
2023-05-15T04:57:06.487Z,96027.97
2023-05-15T04:59:32.869Z,96029.63
2023-05-15T05:01:59.302Z,96028.75
2023-05-15T05:04:25.726Z,96025.81
2023-05-15T05:06:52.144Z,96027.94
2023-05-15T05:09:18.540Z,96031.31
2023-05-15T05:11:44.976Z,96026.38
2023-05-15T05:14:11.456Z,96032.22
2023-05-15T05:16:37.849Z,96033.09
2023-05-15T05:19:04.272Z,96035.97
2023-05-15T05:21:30.668Z,96034.59
2023-05-15T05:23:57.101Z,96037.31
2023-05-15T05:26:23.477Z,96030.00
2023-05-15T05:28:49.847Z,96031.09
2023-05-15T05:31:16.299Z,96040.22
2023-05-15T05:33:42.705Z,96033.59
2023-05-15T05:36:09.075Z,96038.91
2023-05-15T05:38:35.490Z,96040.78
2023-05-15T05:41:01.850Z,96035.88
2023-05-15T05:43:28.234Z,96043.06
2023-05-15T05:45:54.638Z,96040.63
2023-05-15T05:48:21.033Z,96041.97
2023-05-15T05:50:47.822Z,96040.97
2023-05-15T05:53:14.310Z,96045.56
2023-05-15T05:55:40.679Z,96041.78
2023-05-15T05:58:14.668Z,96041.53
2023-05-15T06:00:41.442Z,96047.03
2023-05-15T06:03:08.076Z,96038.09
2023-05-15T06:05:34.555Z,96031.69
2023-05-15T06:08:00.963Z,96035.66
2023-05-15T06:10:27.529Z,96038.63
2023-05-15T06:12:54.019Z,96042.66
2023-05-15T06:15:20.428Z,96041.72
2023-05-15T06:17:46.822Z,96048.50
2023-05-15T06:20:13.197Z,96045.31
2023-05-15T06:22:39.584Z,96046.47
2023-05-15T06:25:05.983Z,96039.22
2023-05-15T06:27:32.346Z,96048.06
2023-05-15T06:29:58.808Z,96042.13
2023-05-15T06:32:25.239Z,96060.31
2023-05-15T06:34:51.641Z,96052.88
2023-05-15T06:37:18.044Z,96053.31
2023-05-15T06:39:44.434Z,96055.34
2023-05-15T06:42:10.822Z,96058.69
2023-05-15T06:44:37.178Z,96058.53
2023-05-15T06:47:03.814Z,96055.47
2023-05-15T06:49:30.325Z,96062.44
2023-05-15T06:51:56.720Z,96051.47
2023-05-15T06:54:23.109Z,96056.16
2023-05-15T06:56:49.477Z,96058.53
2023-05-15T06:59:15.867Z,96055.13
2023-05-15T07:01:42.296Z,96048.00
2023-05-15T07:04:08.739Z,96054.38
2023-05-15T07:06:35.130Z,96052.78
2023-05-15T07:09:01.512Z,96048.28
2023-05-15T07:11:27.891Z,96047.22
2023-05-15T07:13:54.285Z,96056.56
2023-05-15T07:16:20.645Z,96050.41
2023-05-15T07:18:47.164Z,96056.69
2023-05-15T07:21:13.630Z,96058.00
2023-05-15T07:23:40.012Z,96058.72
2023-05-15T07:26:07.412Z,96066.34
2023-05-15T07:28:35.209Z,96059.75
2023-05-15T07:31:02.850Z,96057.31
2023-05-15T07:33:29.511Z,96053.97
2023-05-15T07:35:56.000Z,96064.25
2023-05-15T07:38:22.442Z,96062.00
2023-05-15T07:40:48.873Z,96063.38
2023-05-15T07:43:15.268Z,96063.69
2023-05-15T07:45:41.741Z,96058.22
2023-05-15T07:48:08.251Z,96057.81
2023-05-15T07:50:34.711Z,96054.91
2023-05-15T07:53:01.108Z,96053.50
2023-05-15T07:55:27.657Z,96055.81
2023-05-15T07:57:54.317Z,96041.94
2023-05-15T08:00:20.708Z,96048.41
2023-05-15T08:02:47.146Z,96052.66
2023-05-15T08:05:13.612Z,96054.63
2023-05-15T08:07:39.983Z,96053.34
2023-05-15T08:10:06.530Z,96046.22
2023-05-15T08:12:32.954Z,96046.28
2023-05-15T08:14:59.328Z,96047.84
2023-05-15T08:17:25.755Z,96039.63
2023-05-15T08:19:52.161Z,96035.66
2023-05-15T08:22:18.544Z,96034.69
2023-05-15T08:24:44.936Z,96033.13
2023-05-15T08:27:11.365Z,96036.13
2023-05-15T08:29:39.448Z,96028.84
2023-05-15T08:32:06.129Z,96038.50
2023-05-15T08:34:32.520Z,96028.09
2023-05-15T08:36:58.895Z,96024.63
2023-05-15T08:39:25.283Z,96021.53
2023-05-15T08:41:51.735Z,96027.56
2023-05-15T08:44:18.170Z,96015.72
2023-05-15T08:46:44.578Z,96024.88
2023-05-15T08:49:11.104Z,96009.16
2023-05-15T08:51:37.576Z,96016.75
2023-05-15T08:54:03.945Z,96017.00
2023-05-15T08:56:30.320Z,96014.44
2023-05-15T08:58:56.698Z,96019.66
2023-05-15T09:01:23.116Z,96015.38
2023-05-15T09:03:49.569Z,96008.34
2023-05-15T09:06:16.024Z,96005.66
2023-05-15T09:08:42.521Z,96004.25
2023-05-15T09:11:08.922Z,96003.00
2023-05-15T09:13:35.304Z,95992.03
2023-05-15T09:16:01.616Z,95985.53
2023-05-15T09:18:27.976Z,95979.28
2023-05-15T09:20:56.213Z,95986.75
2023-05-15T09:23:22.722Z,95981.34
2023-05-15T09:25:49.056Z,95988.19
2023-05-15T09:28:15.371Z,95982.38
2023-05-15T09:30:41.679Z,95980.22
2023-05-15T09:33:08.036Z,95988.16
2023-05-15T09:35:34.376Z,95977.94
2023-05-15T09:38:00.684Z,95978.09
2023-05-15T09:40:26.987Z,95965.50
2023-05-15T09:42:53.292Z,95965.03
2023-05-15T09:45:19.660Z,95965.22
2023-05-15T09:47:46.110Z,95969.28
2023-05-15T09:50:12.488Z,95971.91
2023-05-15T09:52:38.790Z,95971.91
2023-05-15T09:55:05.151Z,95966.66
2023-05-15T09:57:31.452Z,95974.00
2023-05-15T09:59:57.750Z,95965.19
2023-05-15T10:02:24.155Z,95963.38
2023-05-15T10:04:50.536Z,95954.28
2023-05-15T10:07:16.856Z,95957.84
2023-05-15T10:09:43.173Z,95954.38
2023-05-15T10:12:09.472Z,95951.16
2023-05-15T10:14:35.781Z,95954.72
2023-05-15T10:17:02.118Z,95942.78
2023-05-15T10:19:28.482Z,95948.78
2023-05-15T10:21:54.801Z,95945.13
2023-05-15T10:24:21.210Z,95943.19
2023-05-15T10:26:47.527Z,95937.69
2023-05-15T10:29:13.874Z,95938.69
2023-05-15T10:31:40.299Z,95927.72
2023-05-15T10:34:06.662Z,95928.34
2023-05-15T10:36:33.118Z,95928.41
2023-05-15T10:38:59.471Z,95925.72
2023-05-15T10:41:25.797Z,95926.63
2023-05-15T10:43:52.141Z,95927.41
2023-05-15T10:46:18.490Z,95925.28
2023-05-15T10:48:44.793Z,95915.91
2023-05-15T10:51:11.193Z,95907.00
2023-05-15T10:53:37.554Z,95909.81
2023-05-15T10:56:03.889Z,95902.88
2023-05-15T10:58:30.198Z,95896.91
2023-05-15T11:00:56.512Z,95893.38
2023-05-15T11:03:22.873Z,95898.56
2023-05-15T11:05:49.195Z,95891.22
2023-05-15T11:08:15.568Z,95893.59
2023-05-15T11:10:41.889Z,95902.59
2023-05-15T11:13:08.193Z,95898.03
2023-05-15T11:15:34.527Z,95899.00
2023-05-15T11:18:00.828Z,95886.41
2023-05-15T11:20:27.223Z,95882.03
2023-05-15T11:22:53.573Z,95887.16
2023-05-15T11:25:19.878Z,95884.94
2023-05-15T11:27:46.310Z,95884.34
2023-05-15T11:30:12.720Z,95879.13
2023-05-15T11:32:39.028Z,95883.78
2023-05-15T11:35:05.345Z,95887.38
2023-05-15T11:37:31.674Z,95891.59
2023-05-15T11:39:57.978Z,95882.53
2023-05-15T11:42:24.274Z,95887.53
2023-05-15T11:44:50.587Z,95882.94
2023-05-15T11:47:16.897Z,95887.13
2023-05-15T11:49:43.189Z,95875.16
2023-05-15T11:52:09.512Z,95891.16
2023-05-15T11:54:35.814Z,95885.50
2023-05-15T11:57:02.105Z,95881.53
2023-05-15T11:59:28.459Z,95883.03
2023-05-15T12:01:54.764Z,95878.47
2023-05-15T12:04:21.233Z,95876.63
2023-05-15T12:06:47.656Z,95869.22
2023-05-15T12:09:14.046Z,95865.38
2023-05-15T12:11:40.357Z,95855.91
2023-05-15T12:14:06.665Z,95855.25
2023-05-15T12:16:32.979Z,95855.22
2023-05-15T12:18:59.323Z,95855.78
2023-05-15T12:21:25.724Z,95860.28
2023-05-15T12:24:03.389Z,95869.19
2023-05-15T12:26:33.759Z,95859.03
2023-05-15T12:29:00.061Z,95855.41
2023-05-15T12:31:26.411Z,95849.31
2023-05-15T12:33:52.768Z,95850.78
2023-05-15T12:36:19.100Z,95855.19
2023-05-15T12:38:45.443Z,95861.91
2023-05-15T12:41:11.778Z,95862.78
2023-05-15T12:43:38.071Z,95852.88
2023-05-15T12:46:04.435Z,95869.63
2023-05-15T12:48:30.845Z,95858.03
2023-05-15T12:50:57.152Z,95863.31
2023-05-15T12:53:23.472Z,95861.28
2023-05-15T12:55:49.799Z,95866.09
2023-05-15T12:58:16.098Z,95865.81
2023-05-15T13:00:42.393Z,95861.31
2023-05-15T13:03:08.834Z,95867.00
2023-05-15T13:05:35.172Z,95864.78
2023-05-15T13:08:01.459Z,95890.09
2023-05-15T13:10:27.975Z,95894.75
2023-05-15T13:12:54.415Z,95882.72
2023-05-15T13:15:20.704Z,95886.78
2023-05-15T13:17:47.042Z,95883.78
2023-05-15T13:20:13.349Z,95879.03
2023-05-15T13:22:39.638Z,95887.47
2023-05-15T13:25:05.956Z,95889.03
2023-05-15T13:27:32.342Z,95891.34
2023-05-15T13:29:58.669Z,95882.72
2023-05-15T13:32:25.043Z,95888.31
2023-05-15T13:34:51.372Z,95881.97
2023-05-15T13:37:17.678Z,95887.16
2023-05-15T13:39:44.001Z,95887.84
2023-05-15T13:42:10.298Z,95895.25
2023-05-15T13:44:36.577Z,95887.59
2023-05-15T13:47:02.934Z,95893.53
2023-05-15T13:49:29.282Z,95898.22
2023-05-15T13:51:55.579Z,95899.31
2023-05-15T13:54:21.896Z,95890.56
2023-05-15T13:56:48.216Z,95882.91
2023-05-15T13:59:14.529Z,95882.41
2023-05-15T14:01:40.842Z,95890.84
2023-05-15T14:04:07.258Z,95889.53
2023-05-15T14:06:33.598Z,95898.41
2023-05-15T14:08:59.957Z,95905.47
2023-05-15T14:11:26.255Z,95902.84
2023-05-15T14:13:52.555Z,95904.13
2023-05-15T14:16:18.900Z,95902.81
2023-05-15T14:18:45.235Z,95905.63
2023-05-15T14:21:11.589Z,95903.28
2023-05-15T14:23:37.913Z,95902.50
2023-05-15T14:26:04.228Z,95902.63
2023-05-15T14:28:30.549Z,95898.34
2023-05-15T14:30:56.870Z,95900.97
2023-05-15T14:33:23.168Z,95897.66
2023-05-15T14:35:49.466Z,95902.81
2023-05-15T14:38:15.769Z,95916.50
2023-05-15T14:40:42.064Z,95936.44
2023-05-15T14:43:08.372Z,95941.44
2023-05-15T14:45:34.720Z,95965.28
2023-05-15T14:48:01.053Z,95973.25
2023-05-15T14:50:27.555Z,95968.44
2023-05-15T14:52:54.063Z,95980.28
2023-05-15T14:55:20.358Z,95982.34
2023-05-15T14:57:46.650Z,95985.38
2023-05-15T15:00:13.001Z,95995.97
2023-05-15T15:02:39.355Z,95985.38
2023-05-15T15:05:05.781Z,95989.28
2023-05-15T15:07:32.113Z,95991.16
2023-05-15T15:09:58.419Z,95991.28
2023-05-15T15:12:24.739Z,95990.66
2023-05-15T15:14:51.100Z,95985.19
2023-05-15T15:17:17.402Z,95980.81
2023-05-15T15:19:43.694Z,95978.78
2023-05-15T15:22:10.016Z,95974.28
2023-05-15T15:24:36.341Z,95979.44
2023-05-15T15:27:02.639Z,95979.59
2023-05-15T15:29:28.966Z,95978.19
2023-05-15T15:31:55.302Z,95977.44
2023-05-15T15:34:21.621Z,95977.25
2023-05-15T15:36:47.953Z,95973.19
2023-05-15T15:39:14.547Z,95975.84
2023-05-15T15:41:41.274Z,95979.72
2023-05-15T15:44:07.641Z,95986.63
2023-05-15T15:46:33.961Z,95985.34
2023-05-15T15:49:00.264Z,95991.72
2023-05-15T15:51:26.582Z,95987.53
2023-05-15T15:53:52.878Z,95981.03
2023-05-15T15:56:19.189Z,95985.34
2023-05-15T15:58:45.503Z,95976.66
2023-05-15T16:01:11.881Z,95982.34
2023-05-15T16:03:38.237Z,95971.91
2023-05-15T16:06:04.575Z,95972.59
2023-05-15T16:08:30.859Z,95980.81
2023-05-15T16:10:57.154Z,95983.06
2023-05-15T16:13:23.466Z,95979.06
2023-05-15T16:15:49.771Z,95976.25
2023-05-15T16:18:16.097Z,95970.56
2023-05-15T16:20:42.460Z,95971.44
2023-05-15T16:23:08.755Z,95968.53
2023-05-15T16:25:35.047Z,95982.06
2023-05-15T16:28:01.629Z,95976.66
2023-05-15T16:30:40.138Z,95979.91
2023-05-15T16:33:14.123Z,95983.38
2023-05-15T16:35:40.420Z,95977.00
2023-05-15T16:38:06.728Z,95976.28
2023-05-15T16:40:33.044Z,95974.78
2023-05-15T16:42:59.352Z,95977.28
2023-05-15T16:45:25.647Z,95976.53
2023-05-15T16:47:52.070Z,95965.28
2023-05-15T16:50:18.367Z,95967.16
2023-05-15T16:52:44.732Z,95965.28
2023-05-15T16:55:11.126Z,95965.38
2023-05-15T16:57:37.438Z,95969.59
2023-05-15T17:00:03.726Z,95966.41
2023-05-15T17:02:30.113Z,95974.38
2023-05-15T17:04:56.502Z,95977.78
2023-05-15T17:07:22.813Z,95978.41
2023-05-15T17:09:49.135Z,95978.50
2023-05-15T17:12:15.434Z,95979.03
2023-05-15T17:14:41.727Z,95986.41
2023-05-15T17:17:08.071Z,95983.34
2023-05-15T17:19:34.397Z,95984.84
2023-05-15T17:22:00.680Z,95984.22
2023-05-15T17:24:35.306Z,95992.34
2023-05-15T17:27:08.844Z,95984.38
2023-05-15T17:29:35.163Z,95995.94
2023-05-15T17:32:01.519Z,95999.41
2023-05-15T17:34:27.917Z,96003.91
2023-05-15T17:36:54.235Z,96005.69
2023-05-15T17:39:20.530Z,96010.59
2023-05-15T17:41:46.847Z,96007.59
2023-05-15T17:44:13.167Z,96006.16
2023-05-15T17:46:39.463Z,96006.38
2023-05-15T17:49:05.776Z,96007.59
2023-05-15T17:51:32.090Z,96002.41
2023-05-15T17:53:58.374Z,96008.81
2023-05-15T17:56:24.660Z,96004.28
2023-05-15T17:58:51.104Z,96017.78
2023-05-15T18:01:17.456Z,96010.75
2023-05-15T18:03:43.783Z,96009.97
2023-05-15T18:06:10.111Z,96019.00
2023-05-15T18:08:36.475Z,96006.53
2023-05-15T18:11:11.105Z,96015.88
2023-05-15T18:13:44.266Z,96009.66
2023-05-15T18:16:10.612Z,96008.56
2023-05-15T18:18:37.016Z,96014.63
2023-05-15T18:21:03.369Z,96019.63
2023-05-15T18:23:29.656Z,96021.53
2023-05-15T18:25:55.964Z,96018.06
2023-05-15T18:28:22.325Z,96024.63
2023-05-15T18:30:48.655Z,96019.63
2023-05-15T18:33:14.983Z,96009.66
2023-05-15T18:35:41.308Z,96019.16
2023-05-15T18:38:07.609Z,96021.84
2023-05-15T18:40:33.910Z,96017.31
2023-05-15T18:43:00.241Z,96014.97
2023-05-15T18:45:26.663Z,96018.09
2023-05-15T18:47:53.306Z,96031.34
2023-05-15T18:50:19.738Z,96030.56
2023-05-15T18:52:46.037Z,96030.88
2023-05-15T18:55:12.344Z,96030.25
2023-05-15T18:57:38.662Z,96025.88
2023-05-15T19:00:04.969Z,96028.06
2023-05-15T19:02:31.332Z,96024.03
2023-05-15T19:04:57.711Z,96021.97
2023-05-15T19:07:23.992Z,96027.78
2023-05-15T19:09:50.291Z,96024.97
2023-05-15T19:12:16.600Z,96022.16
2023-05-15T19:14:42.890Z,96023.72
2023-05-15T19:17:09.192Z,96017.47
2023-05-15T19:19:35.540Z,96028.53
2023-05-15T19:22:01.854Z,96026.03
2023-05-15T19:24:28.152Z,96025.59
2023-05-15T19:26:54.459Z,96019.66
2023-05-15T19:29:20.746Z,96031.81
2023-05-15T19:31:47.089Z,96033.97
2023-05-15T19:34:13.464Z,96033.50
2023-05-15T19:36:39.751Z,96027.75
2023-05-15T19:39:06.068Z,96026.84
2023-05-15T19:41:32.404Z,96032.91
2023-05-15T19:43:58.706Z,96030.91
2023-05-15T19:46:25.010Z,96032.28
2023-05-15T19:48:51.350Z,96038.81
2023-05-15T19:51:17.658Z,96032.59
2023-05-15T19:53:43.959Z,96037.88
2023-05-15T19:56:10.287Z,96039.31
2023-05-15T19:58:36.577Z,96034.00
2023-05-15T20:01:02.893Z,96036.19
2023-05-15T20:03:29.376Z,96030.56
2023-05-15T20:05:55.711Z,96035.25
2023-05-15T20:08:22.023Z,96036.16
2023-05-15T20:10:48.338Z,96029.66
2023-05-15T20:13:14.630Z,96035.88
2023-05-15T20:15:40.933Z,96033.63
2023-05-15T20:18:07.390Z,96040.47
2023-05-15T20:20:33.830Z,96029.31
2023-05-15T20:23:00.167Z,96029.66
2023-05-15T20:25:26.618Z,96037.41
2023-05-15T20:27:53.006Z,96035.88
2023-05-15T20:30:19.306Z,96027.13
2023-05-15T20:32:45.728Z,96030.84
2023-05-15T20:35:12.068Z,96027.72
2023-05-15T20:37:38.369Z,96031.00
2023-05-15T20:40:04.737Z,96031.47
2023-05-15T20:42:31.029Z,96035.03
2023-05-15T20:44:57.316Z,96024.59
2023-05-15T20:47:23.659Z,96027.53
2023-05-15T20:49:50.055Z,96027.72
2023-05-15T20:52:16.341Z,96028.81
2023-05-15T20:54:42.657Z,96030.56
2023-05-15T20:57:08.967Z,96033.22
2023-05-15T20:59:35.267Z,96030.81
2023-05-15T21:02:01.586Z,96030.41
2023-05-15T21:04:27.890Z,96025.38
2023-05-15T21:06:54.205Z,96024.13
2023-05-15T21:09:20.524Z,96029.91
2023-05-15T21:11:46.825Z,96034.63
2023-05-15T21:14:13.488Z,96035.22
2023-05-15T21:16:39.834Z,96037.97
2023-05-15T21:19:06.239Z,96031.38
2023-05-15T21:21:32.625Z,96031.34
2023-05-15T21:23:58.940Z,96025.97
2023-05-15T21:26:25.230Z,96022.06
2023-05-15T21:28:51.524Z,96026.41
2023-05-15T21:31:17.875Z,96031.53
2023-05-15T21:33:44.218Z,96035.09
2023-05-15T21:36:10.515Z,96035.09
2023-05-15T21:38:36.829Z,96029.41
2023-05-15T21:41:03.131Z,96032.31
2023-05-15T21:43:29.439Z,96030.69
2023-05-15T21:45:55.821Z,96039.38
2023-05-15T21:48:22.138Z,96040.22
2023-05-15T21:50:48.425Z,96051.72
2023-05-15T21:53:14.736Z,96040.03
2023-05-15T21:55:41.045Z,96043.59
2023-05-15T21:58:07.405Z,96038.19
2023-05-15T22:00:33.711Z,96033.84
2023-05-15T22:03:00.162Z,96033.25
2023-05-15T22:05:26.696Z,96036.84
2023-05-15T22:07:53.009Z,96029.84
2023-05-15T22:10:20.438Z,96037.34
2023-05-15T22:12:46.748Z,96027.56
2023-05-15T22:15:13.100Z,96033.72
2023-05-15T22:17:39.436Z,96025.78
2023-05-15T22:20:08.415Z,96023.53
2023-05-15T22:22:34.802Z,96017.72
2023-05-15T22:25:01.101Z,96011.69
2023-05-15T22:27:27.390Z,96013.84
2023-05-15T22:29:53.708Z,96012.44
2023-05-15T22:32:20.008Z,96009.47
2023-05-15T22:34:46.340Z,96017.41
2023-05-15T22:37:12.662Z,96018.16
2023-05-15T22:39:38.961Z,96010.38
2023-05-15T22:42:05.292Z,96005.44
2023-05-15T22:44:31.604Z,96006.72
2023-05-15T22:46:57.911Z,96004.84
2023-05-15T22:49:24.291Z,96005.78
2023-05-15T22:51:50.663Z,96002.88
2023-05-15T22:54:16.983Z,96009.97
2023-05-15T22:56:43.350Z,95999.13
2023-05-15T22:59:09.650Z,95999.59
2023-05-15T23:01:36.006Z,96001.66
2023-05-15T23:04:02.386Z,95991.19
2023-05-15T23:06:28.717Z,95997.72
2023-05-15T23:08:55.001Z,95992.78
2023-05-15T23:11:21.303Z,95986.72
2023-05-15T23:13:47.625Z,95981.88
2023-05-15T23:16:13.979Z,95988.56
2023-05-15T23:18:40.371Z,95987.00
2023-05-15T23:21:06.693Z,95987.31
2023-05-15T23:23:32.971Z,95986.81
2023-05-15T23:25:59.256Z,95983.88
2023-05-15T23:28:25.566Z,95985.44
2023-05-15T23:30:51.898Z,95987.97
2023-05-15T23:33:18.201Z,95982.66
2023-05-15T23:35:44.514Z,95988.72
2023-05-15T23:38:10.818Z,95988.56
2023-05-15T23:40:37.136Z,95988.34
2023-05-15T23:43:03.458Z,95981.88
2023-05-15T23:45:29.748Z,95979.72
2023-05-15T23:47:56.097Z,95976.22
2023-05-15T23:50:22.474Z,95979.91
2023-05-15T23:52:48.776Z,95969.56
2023-05-15T23:55:15.076Z,95976.00
2023-05-15T23:57:41.436Z,95969.84
